Time;durP1;ratioP1;P1;durP2;ratioP2;P2;SDS_P1;SDS_P2;PMS_P1;PMS_P2;Temp;Humidity;BMP_temperature;BMP_pressure;BME280_temperature;BME280_humidity;BME280_pressure;Samples;Min_cycle;Max_cycle;Signal;HPM_P1;HPM_P2
2022/06/10 00:00:31;;;;;;;2.33;0.43;;;21.10;73.40;;;;;;4225234;28;20039;-66
2022/06/10 00:02:54;;;;;;;0.00;0.00;;;21.10;73.30;;;;;;4229350;28;20043;-65
2022/06/10 00:05:19;;;;;;;0.00;0.00;;;21.10;73.30;;;;;;4229308;28;20116;-66
2022/06/10 00:07:41;;;;;;;0.10;0.10;;;21.10;73.30;;;;;;4230203;28;20105;-66
2022/06/10 00:10:05;;;;;;;0.00;0.00;;;21.10;73.40;;;;;;4230272;28;20059;-65
2022/06/10 00:12:27;;;;;;;0.00;0.00;;;21.10;73.30;;;;;;4230023;28;20070;-66
2022/06/10 00:14:50;;;;;;;0.00;0.00;;;21.10;73.20;;;;;;4229820;28;20055;-65
2022/06/10 00:17:12;;;;;;;0.00;0.00;;;21.10;73.20;;;;;;4229424;28;20051;-65
2022/06/10 00:19:35;;;;;;;0.00;0.00;;;21.10;73.30;;;;;;4228806;28;20062;-66
2022/06/10 00:21:57;;;;;;;0.05;0.05;;;21.10;73.20;;;;;;4230293;28;20503;-67
2022/06/10 00:24:19;;;;;;;0.00;0.00;;;21.00;73.20;;;;;;4229964;28;20202;-67
2022/06/10 00:26:41;;;;;;;0.00;0.00;;;21.00;73.20;;;;;;4230062;28;20063;-67
2022/06/10 00:29:04;;;;;;;0.00;0.00;;;21.00;73.10;;;;;;4230120;28;20044;-67
2022/06/10 00:31:26;;;;;;;0.00;0.00;;;21.00;73.10;;;;;;4229774;28;20087;-67
2022/06/10 00:33:49;;;;;;;0.10;0.10;;;21.00;73.10;;;;;;4228490;28;20056;-67
2022/06/10 00:36:12;;;;;;;0.15;0.15;;;21.00;73.10;;;;;;4229885;28;20047;-67
2022/06/10 00:38:35;;;;;;;0.00;0.00;;;21.00;73.10;;;;;;4230056;28;20514;-67
2022/06/10 00:40:58;;;;;;;0.00;0.00;;;21.00;73.10;;;;;;4229951;28;20062;-67
2022/06/10 00:43:22;;;;;;;0.00;0.00;;;21.00;73.00;;;;;;4230039;28;20066;-67
2022/06/10 00:46:14;;;;;;;0.00;0.00;;;21.00;73.00;;;;;;4229808;28;20055;-66
2022/06/10 00:48:46;;;;;;;0.00;0.00;;;20.90;73.00;;;;;;4229256;28;20491;-67
2022/06/10 00:51:20;;;;;;;0.10;0.10;;;20.90;73.00;;;;;;4229900;28;20051;-66
2022/06/10 00:53:43;;;;;;;0.05;0.05;;;20.90;72.90;;;;;;4232728;28;20100;-66
2022/06/10 00:56:10;;;;;;;0.47;0.47;;;20.90;72.90;;;;;;4232692;28;20391;-67
2022/06/10 00:58:40;;;;;;;0.00;0.00;;;20.90;73.20;;;;;;4233038;28;20511;-67
2022/06/10 01:01:03;;;;;;;0.00;0.00;;;20.90;73.30;;;;;;4231427;28;20139;-67
2022/06/10 01:03:26;;;;;;;0.00;0.00;;;20.90;73.20;;;;;;4232362;28;20047;-67
2022/06/10 01:05:48;;;;;;;0.00;0.00;;;20.90;73.10;;;;;;4232967;28;20059;-67
2022/06/10 01:08:15;;;;;;;0.00;0.00;;;20.90;73.10;;;;;;4232720;28;20055;-67
2022/06/10 01:10:45;;;;;;;0.00;0.00;;;20.90;73.10;;;;;;4232744;28;20509;-67
2022/06/10 01:13:17;;;;;;;0.00;0.00;;;20.90;73.10;;;;;;4231427;28;20055;-67
2022/06/10 01:15:53;;;;;;;0.00;0.00;;;20.90;73.10;;;;;;4232225;28;20059;-67
2022/06/10 01:18:31;;;;;;;0.00;0.00;;;20.80;73.10;;;;;;4232736;28;20053;-67
2022/06/10 01:21:06;;;;;;;0.00;0.00;;;20.80;73.00;;;;;;4215475;28;20050;-66
2022/06/10 01:24:06;;;;;;;0.20;0.20;;;20.80;73.00;;;;;;4215382;28;20447;-66
2022/06/10 01:30:07;;;;;;;0.00;0.00;;;20.80;72.90;;;;;;4209935;28;20132;-66
2022/06/10 01:32:34;;;;;;;0.00;0.00;;;20.80;72.90;;;;;;4215257;28;20105;-66
2022/06/10 01:35:05;;;;;;;0.00;0.00;;;20.80;72.90;;;;;;4214521;28;20540;-66
2022/06/10 01:37:35;;;;;;;0.00;0.00;;;20.80;72.90;;;;;;4214853;28;20089;-66
2022/06/10 01:40:05;;;;;;;0.52;0.52;;;20.80;72.90;;;;;;4214138;28;20048;-66
2022/06/10 01:42:33;;;;;;;0.00;0.00;;;20.80;72.90;;;;;;4215352;28;20776;-67
2022/06/10 01:45:03;;;;;;;0.00;0.00;;;20.70;72.90;;;;;;4215056;28;20116;-66
2022/06/10 01:47:31;;;;;;;0.00;0.00;;;20.70;72.90;;;;;;4214372;28;20131;-67
2022/06/10 01:49:59;;;;;;;0.00;0.00;;;20.70;72.80;;;;;;4215064;28;20114;-66
2022/06/10 01:52:27;;;;;;;1.45;0.40;;;20.70;72.90;;;;;;4214801;28;20047;-66
2022/06/10 01:54:57;;;;;;;0.43;0.43;;;20.70;72.80;;;;;;4214971;28;20110;-66
2022/06/10 01:57:26;;;;;;;0.00;0.00;;;20.70;72.80;;;;;;4214105;28;20056;-67
2022/06/10 01:59:56;;;;;;;0.00;0.00;;;20.70;72.80;;;;;;4215037;28;20454;-67
2022/06/10 02:02:21;;;;;;;0.00;0.00;;;20.70;73.70;;;;;;4198395;28;20059;-67
2022/06/10 02:04:46;;;;;;;0.00;0.00;;;20.70;72.80;;;;;;4198360;28;20106;-67
2022/06/10 02:07:14;;;;;;;0.00;0.00;;;20.70;72.80;;;;;;4197703;28;20429;-67
2022/06/10 02:09:40;;;;;;;0.00;0.00;;;20.60;73.60;;;;;;4213818;28;20719;-67
2022/06/10 02:12:10;;;;;;;0.00;0.00;;;20.70;72.70;;;;;;4213601;28;20146;-67
2022/06/10 02:14:40;;;;;;;0.00;0.00;;;20.60;72.60;;;;;;4214251;28;20059;-67
2022/06/10 02:17:03;;;;;;;0.00;0.00;;;20.60;72.60;;;;;;4214646;28;20090;-67
2022/06/10 02:19:28;;;;;;;0.00;0.00;;;20.60;72.60;;;;;;4214509;28;20117;-67
2022/06/10 02:21:54;;;;;;;0.00;0.00;;;20.60;72.60;;;;;;4214094;28;20055;-67
2022/06/10 02:24:22;;;;;;;0.00;0.00;;;20.60;72.60;;;;;;4213719;28;20495;-66
2022/06/10 02:26:46;;;;;;;0.00;0.00;;;20.60;72.60;;;;;;4214733;28;20089;-67
2022/06/10 02:29:12;;;;;;;0.00;0.00;;;20.60;72.60;;;;;;4214347;28;20098;-66
2022/06/10 02:31:39;;;;;;;0.00;0.00;;;20.60;72.60;;;;;;4214674;28;20456;-66
2022/06/10 02:34:02;;;;;;;0.00;0.00;;;20.60;72.60;;;;;;4214380;28;20123;-66
2022/06/10 02:36:29;;;;;;;0.05;0.05;;;20.60;72.60;;;;;;4213536;28;20101;-67
2022/06/10 02:39:00;;;;;;;0.00;0.00;;;20.60;72.60;;;;;;4213743;28;20633;-66
2022/06/10 02:41:33;;;;;;;0.00;0.00;;;20.50;72.60;;;;;;4214398;28;20521;-66
2022/06/10 02:44:05;;;;;;;0.00;0.00;;;20.50;72.60;;;;;;4214158;28;20220;-68
2022/06/10 02:46:31;;;;;;;0.00;0.00;;;20.50;72.60;;;;;;4213932;28;20071;-69
2022/06/10 02:49:01;;;;;;;0.00;0.00;;;20.50;72.60;;;;;;4213609;28;20066;-69
2022/06/10 02:51:23;;;;;;;0.00;0.00;;;20.50;73.50;;;;;;4213816;28;20063;-67
2022/06/10 02:53:46;;;;;;;0.00;0.00;;;20.50;72.60;;;;;;4213583;28;20097;-67
2022/06/10 02:56:17;;;;;;;0.00;0.00;;;20.50;72.60;;;;;;4214104;28;20091;-67
2022/06/10 03:01:30;;;;;;;0.00;0.00;;;20.50;72.60;;;;;;4214010;28;20565;-66
2022/06/10 03:04:10;;;;;;;0.00;0.00;;;20.50;72.60;;;;;;4214055;28;20091;-67
2022/06/10 03:06:38;;;;;;;0.00;0.00;;;20.50;72.60;;;;;;4212814;28;20070;-67
2022/06/10 03:09:10;;;;;;;0.10;0.10;;;20.50;73.40;;;;;;4213301;28;20473;-68
2022/06/10 03:11:39;;;;;;;0.00;0.00;;;20.50;72.50;;;;;;4214036;28;20129;-67
2022/06/10 03:14:09;;;;;;;0.10;0.10;;;20.40;72.50;;;;;;4213712;28;20113;-67
2022/06/10 03:16:44;;;;;;;0.00;0.00;;;20.40;72.60;;;;;;4213893;28;20071;-67
2022/06/10 03:19:16;;;;;;;0.10;0.10;;;20.40;72.60;;;;;;4213825;28;20060;-67
2022/06/10 03:21:51;;;;;;;0.00;0.00;;;20.40;72.50;;;;;;4213766;28;20137;-68
2022/06/10 03:24:23;;;;;;;0.00;0.00;;;20.40;72.60;;;;;;4213430;28;20062;-67
2022/06/10 03:26:46;;;;;;;;;;;20.40;72.60;;;;;;4213927;28;20044;-66
2022/06/10 03:29:18;;;;;;;0.00;0.00;;;20.40;72.70;;;;;;4213678;28;19923;-66
2022/06/10 03:31:44;;;;;;;0.00;0.00;;;20.40;72.80;;;;;;4213682;28;20056;-66
2022/06/10 03:34:15;;;;;;;0.00;0.00;;;20.40;72.80;;;;;;4213501;28;20411;-66
2022/06/10 03:36:37;;;;;;;0.00;0.00;;;20.40;72.80;;;;;;4213329;28;20404;-66
2022/06/10 03:39:01;;;;;;;0.00;0.00;;;20.40;72.80;;;;;;4213246;28;20059;-65
2022/06/10 03:41:26;;;;;;;0.00;0.00;;;20.40;72.80;;;;;;4213605;28;20113;-65
2022/06/10 03:43:51;;;;;;;0.10;0.10;;;20.40;72.70;;;;;;4212356;28;20094;-65
2022/06/10 03:46:15;;;;;;;0.00;0.00;;;20.40;72.70;;;;;;4213485;28;20078;-65
2022/06/10 03:48:43;;;;;;;0.10;0.10;;;20.40;72.70;;;;;;4212490;28;20135;-65
2022/06/10 03:51:07;;;;;;;0.00;0.00;;;20.30;72.60;;;;;;4212374;28;20182;-65
2022/06/10 03:53:30;;;;;;;0.00;0.00;;;20.40;72.70;;;;;;4213462;28;20491;-65
2022/06/10 03:55:52;;;;;;;0.43;0.22;;;20.40;72.70;;;;;;4213102;28;20060;-67
2022/06/10 03:58:15;;;;;;;0.00;0.00;;;20.40;72.70;;;;;;4196715;28;20056;-66
2022/06/10 04:00:38;;;;;;;0.00;0.00;;;20.40;72.70;;;;;;4196762;28;20493;-66
2022/06/10 04:03:01;;;;;;;0.22;0.22;;;20.40;72.70;;;;;;4196582;28;20056;-66
2022/06/10 04:05:23;;;;;;;0.05;0.05;;;20.30;72.60;;;;;;4196379;28;20245;-66
2022/06/10 04:07:45;;;;;;;0.00;0.00;;;20.40;72.70;;;;;;4196544;28;20566;-67
2022/06/10 04:10:10;;;;;;;0.00;0.00;;;20.40;72.70;;;;;;4196136;28;20455;-66
2022/06/10 04:12:32;;;;;;;0.00;0.00;;;20.30;72.60;;;;;;4196617;28;20064;-66
2022/06/10 04:14:55;;;;;;;0.00;0.00;;;20.30;72.60;;;;;;4205614;28;20131;-66
2022/06/10 04:17:20;;;;;;;4.68;0.98;;;20.30;72.70;;;;;;4213401;28;20101;-66
2022/06/10 04:19:43;;;;;;;0.00;0.00;;;20.40;72.70;;;;;;4213263;28;20817;-66
2022/06/10 04:22:06;;;;;;;1.60;0.88;;;20.30;72.70;;;;;;4213399;28;20060;-66
2022/06/10 04:24:28;;;;;;;0.00;0.00;;;20.30;72.70;;;;;;4211991;28;20055;-66
2022/06/10 04:26:50;;;;;;;0.00;0.00;;;20.30;72.60;;;;;;4212147;28;20059;-66
2022/06/10 04:29:14;;;;;;;0.13;0.13;;;20.40;72.70;;;;;;4216331;28;20063;-66
2022/06/10 04:31:37;;;;;;;0.00;0.00;;;20.30;72.70;;;;;;4216576;28;20056;-66
2022/06/10 04:33:59;;;;;;;0.95;0.90;;;20.30;72.60;;;;;;4216021;28;20080;-66
2022/06/10 04:36:23;;;;;;;0.00;0.00;;;20.40;72.70;;;;;;4215360;28;20060;-67
2022/06/10 04:38:45;;;;;;;0.00;0.00;;;20.30;72.70;;;;;;4216257;28;20051;-66
2022/06/10 04:41:07;;;;;;;0.25;0.25;;;20.40;72.70;;;;;;4215909;28;20494;-66
2022/06/10 04:43:29;;;;;;;0.00;0.00;;;20.40;72.70;;;;;;4216011;28;20105;-66
2022/06/10 04:45:53;;;;;;;0.00;0.00;;;20.40;72.60;;;;;;4216251;28;20051;-66
2022/06/10 04:48:16;;;;;;;0.00;0.00;;;20.40;72.50;;;;;;4216220;28;20082;-66
2022/06/10 04:50:38;;;;;;;0.00;0.00;;;20.40;72.40;;;;;;4215988;28;20056;-66
2022/06/10 04:53:02;;;;;;;0.00;0.00;;;20.40;72.30;;;;;;4216029;28;20048;-66
2022/06/10 04:55:27;;;;;;;0.00;0.00;;;20.40;72.30;;;;;;4214807;28;20063;-66
2022/06/10 04:57:49;;;;;;;0.00;0.00;;;20.50;72.30;;;;;;4215559;28;20048;-66
2022/06/10 05:00:16;;;;;;;0.00;0.00;;;20.50;72.20;;;;;;4216043;28;20687;-66
2022/06/10 05:02:39;;;;;;;0.00;0.00;;;20.40;72.20;;;;;;4214984;28;20060;-66
2022/06/10 05:05:01;;;;;;;0.00;0.00;;;20.40;72.30;;;;;;4215875;28;20079;-66
2022/06/10 05:07:23;;;;;;;0.20;0.20;;;20.40;72.30;;;;;;4215954;28;20060;-66
2022/06/10 05:09:47;;;;;;;0.00;0.00;;;20.50;72.40;;;;;;4215991;28;20703;-66
2022/06/10 05:12:09;;;;;;;0.00;0.00;;;20.40;72.30;;;;;;4215378;28;20063;-66
2022/06/10 05:14:32;;;;;;;0.05;0.05;;;20.50;72.40;;;;;;4215443;28;20055;-66
2022/06/10 05:16:56;;;;;;;0.20;0.20;;;20.50;72.10;;;;;;4215791;28;20117;-66
2022/06/10 05:19:18;;;;;;;0.03;0.03;;;20.50;71.90;;;;;;4215253;28;20583;-66
2022/06/10 05:21:40;;;;;;;0.00;0.00;;;20.60;71.70;;;;;;4215048;28;20131;-67
2022/06/10 05:24:02;;;;;;;0.10;0.10;;;20.70;71.60;;;;;;4215388;28;20571;-66
2022/06/10 05:26:29;;;;;;;0.00;0.00;;;20.80;70.90;;;;;;4214147;28;20087;-67
2022/06/10 05:28:51;;;;;;;0.00;0.00;;;20.90;70.30;;;;;;4214955;28;20059;-66
2022/06/10 05:31:13;;;;;;;0.00;0.00;;;21.00;69.60;;;;;;4215248;28;20507;-67
2022/06/10 05:36:11;;;;;;;0.00;0.00;;;21.10;68.90;;;;;;4206366;28;20385;-66
2022/06/10 05:38:33;;;;;;;0.10;0.10;;;21.10;68.80;;;;;;4213934;28;20083;-68
2022/06/10 05:42:04;;;;;;;0.00;0.00;;;21.10;68.80;;;;;;4215088;28;20055;-68
2022/06/10 05:43:39;;;;;;;0.05;0.05;;;21.10;68.90;;;;;;4214850;28;20048;-68
2022/06/10 05:46:01;;;;;;;3.72;1.55;;;21.10;69.30;;;;;;4215324;28;20063;-68
2022/06/10 05:48:23;;;;;;;0.55;0.38;;;21.10;69.60;;;;;;4215133;28;20051;-70
2022/06/10 05:50:45;;;;;;;0.00;0.00;;;21.10;69.70;;;;;;4213874;28;20503;-72
2022/06/10 05:53:10;;;;;;;0.00;0.00;;;21.00;70.50;;;;;;4215125;28;20078;-70
2022/06/10 05:55:34;;;;;;;0.00;0.00;;;21.00;71.50;;;;;;4213794;28;20099;-70
2022/06/10 05:58:01;;;;;;;0.00;0.00;;;21.00;71.80;;;;;;4214854;28;20053;-70
2022/06/10 06:00:26;;;;;;;1.10;1.08;;;21.00;71.80;;;;;;4215006;28;20079;-69
2022/06/10 06:02:49;;;;;;;0.00;0.00;;;21.00;71.60;;;;;;4215028;28;20056;-69
2022/06/10 06:05:12;;;;;;;0.00;0.00;;;20.90;71.60;;;;;;4213874;28;20130;-69
2022/06/10 06:07:34;;;;;;;0.00;0.00;;;20.90;71.70;;;;;;4214466;28;20054;-69
2022/06/10 06:09:56;;;;;;;0.20;0.20;;;20.90;71.70;;;;;;4214874;28;20133;-69
2022/06/10 06:12:19;;;;;;;0.00;0.00;;;20.80;71.40;;;;;;4214802;28;20481;-69
2022/06/10 06:14:41;;;;;;;0.00;0.00;;;20.80;71.20;;;;;;4213219;28;20851;-69
2022/06/10 06:17:05;;;;;;;0.00;0.00;;;20.80;71.20;;;;;;4214824;28;20447;-69
2022/06/10 06:19:30;;;;;;;0.00;0.00;;;20.70;71.20;;;;;;4214712;28;20056;-69
2022/06/10 06:21:51;;;;;;;1.02;1.00;;;20.70;71.30;;;;;;4213647;28;20473;-69
2022/06/10 06:24:13;;;;;;;1.17;0.90;;;20.70;71.30;;;;;;4214725;28;20058;-69
2022/06/10 06:26:35;;;;;;;0.90;0.25;;;20.60;71.00;;;;;;4214658;28;20055;-68
2022/06/10 06:28:57;;;;;;;0.10;0.10;;;20.60;71.00;;;;;;4214335;28;20051;-69
2022/06/10 06:31:19;;;;;;;0.00;0.00;;;20.60;71.90;;;;;;4214743;28;20519;-69
2022/06/10 06:33:43;;;;;;;0.00;0.00;;;20.60;71.10;;;;;;4214517;28;20083;-69
2022/06/10 06:36:07;;;;;;;0.00;0.00;;;20.60;71.90;;;;;;4213506;28;20048;-69
2022/06/10 06:38:29;;;;;;;0.00;0.00;;;20.60;70.90;;;;;;4214644;28;20056;-65
2022/06/10 06:40:51;;;;;;;5.25;0.98;;;20.60;70.80;;;;;;4195841;28;20062;-68
2022/06/10 06:43:13;;;;;;;0.10;0.10;;;20.60;70.60;;;;;;4195431;28;20056;-69
2022/06/10 06:45:36;;;;;;;0.00;0.00;;;20.60;70.70;;;;;;4209738;28;20158;-69
2022/06/10 06:47:59;;;;;;;0.00;0.00;;;20.60;70.80;;;;;;4200998;28;20109;-68
2022/06/10 06:50:26;;;;;;;0.25;0.25;;;20.60;70.70;;;;;;4198920;28;20562;-68
2022/06/10 06:52:49;;;;;;;4.07;1.45;;;20.60;70.60;;;;;;4196012;28;20055;-67
2022/06/10 06:55:12;;;;;;;0.10;0.10;;;20.70;70.60;;;;;;4195252;28;20484;-67
2022/06/10 06:57:35;;;;;;;0.00;0.00;;;20.70;70.40;;;;;;4195196;28;20064;-67
2022/06/10 07:00:05;;;;;;;0.32;0.28;;;20.70;70.20;;;;;;4203884;28;20454;-68
2022/06/10 07:02:27;;;;;;;0.00;0.00;;;20.70;70.10;;;;;;4197393;28;20047;-67
2022/06/10 07:04:49;;;;;;;0.28;0.28;;;20.80;70.10;;;;;;4195176;28;20052;-67
2022/06/10 07:07:13;;;;;;;0.00;0.00;;;20.80;70.00;;;;;;4206944;28;20121;-67
2022/06/10 07:09:35;;;;;;;0.15;0.15;;;20.70;70.00;;;;;;4199423;28;20400;-68
2022/06/10 07:11:57;;;;;;;0.00;0.00;;;20.70;70.10;;;;;;4197577;28;20052;-68
2022/06/10 07:14:19;;;;;;;0.00;0.00;;;20.70;70.10;;;;;;4211057;28;20083;-68
2022/06/10 07:16:41;;;;;;;0.70;0.70;;;20.70;70.30;;;;;;4194719;28;20053;-69
2022/06/10 07:19:04;;;;;;;0.00;0.00;;;20.70;70.40;;;;;;4202701;28;20064;-69
2022/06/10 07:21:27;;;;;;;0.00;0.00;;;20.70;70.60;;;;;;4198616;28;20052;-69
2022/06/10 07:23:51;;;;;;;0.38;0.38;;;20.70;70.70;;;;;;4199252;28;20045;-67
2022/06/10 07:26:13;;;;;;;0.10;0.10;;;20.70;70.90;;;;;;4195206;28;20070;-67
2022/06/10 07:28:36;;;;;;;0.75;0.75;;;20.70;71.00;;;;;;4197127;28;20447;-67
2022/06/10 07:30:58;;;;;;;0.00;0.00;;;20.60;71.20;;;;;;4199622;28;20130;-67
2022/06/10 07:33:21;;;;;;;0.00;0.00;;;20.60;71.30;;;;;;4203871;28;20056;-67
2022/06/10 07:35:44;;;;;;;0.00;0.00;;;20.60;71.40;;;;;;4197807;28;20085;-66
2022/06/10 07:38:06;;;;;;;0.00;0.00;;;20.60;71.40;;;;;;4204623;28;20060;-68
2022/06/10 07:43:32;;;;;;;0.00;0.00;;;20.70;71.60;;;;;;4198543;28;20052;-68
2022/06/10 07:45:55;;;;;;;0.00;0.00;;;20.70;71.70;;;;;;4195163;28;20060;-69
2022/06/10 07:48:17;;;;;;;0.03;0.03;;;20.70;71.80;;;;;;4200637;28;20131;-69
2022/06/10 07:50:41;;;;;;;1.05;0.95;;;20.70;71.80;;;;;;4181976;28;20382;-68
2022/06/10 07:53:02;;;;;;;0.00;0.00;;;20.70;71.80;;;;;;4207441;28;20121;-68
2022/06/10 07:55:25;;;;;;;0.90;0.73;;;20.70;71.90;;;;;;4197976;28;20135;-69
2022/06/10 07:57:48;;;;;;;0.00;0.00;;;20.70;72.10;;;;;;4194237;28;20989;-62
2022/06/10 08:00:13;;;;;;;0.15;0.15;;;20.70;72.30;;;;;;4200077;28;20480;-68
2022/06/10 08:02:35;;;;;;;0.00;0.00;;;20.70;72.60;;;;;;4200619;28;20045;-68
2022/06/10 08:04:58;;;;;;;0.00;0.00;;;20.70;72.80;;;;;;4215560;28;20109;-68
2022/06/10 08:07:20;;;;;;;0.43;0.43;;;20.70;73.00;;;;;;4215342;28;20059;-68
2022/06/10 08:09:42;;;;;;;0.00;0.00;;;20.70;73.10;;;;;;4216759;28;20059;-68
2022/06/10 08:12:05;;;;;;;0.70;0.70;;;20.70;73.30;;;;;;4216929;28;20052;-68
2022/06/10 08:14:28;;;;;;;0.00;0.00;;;20.70;73.40;;;;;;4216759;28;20479;-68
2022/06/10 08:16:53;;;;;;;0.00;0.00;;;20.70;73.60;;;;;;4201148;28;20470;-68
2022/06/10 08:19:15;;;;;;;0.00;0.00;;;20.70;73.70;;;;;;4214348;28;20054;-68
2022/06/10 08:24:20;;;;;;;0.20;0.20;;;20.70;73.70;;;;;;4215222;28;20060;-69
2022/06/10 08:26:42;;;;;;;0.35;0.35;;;20.70;73.60;;;;;;4216637;28;20609;-69
2022/06/10 08:29:11;;;;;;;0.00;0.00;;;20.80;73.70;;;;;;4216109;28;20504;-69
2022/06/10 08:31:35;;;;;;;0.00;0.00;;;20.80;73.70;;;;;;4216415;28;20404;-69
2022/06/10 08:33:58;;;;;;;0.00;0.00;;;20.80;74.50;;;;;;4216010;28;20113;-69
2022/06/10 08:36:21;;;;;;;0.00;0.00;;;20.80;73.70;;;;;;4216217;28;20059;-69
2022/06/10 08:38:44;;;;;;;0.00;0.00;;;20.80;73.80;;;;;;4214792;28;20048;-68
2022/06/10 08:41:14;;;;;;;1.10;0.73;;;20.80;73.80;;;;;;4200744;28;20064;-68
2022/06/10 08:43:52;;;;;;;0.00;0.00;;;20.80;74.00;;;;;;4216384;28;20063;-69
2022/06/10 08:46:33;;;;;;;0.00;0.00;;;20.80;74.00;;;;;;4216018;28;20491;-70
2022/06/10 08:49:19;;;;;;;0.10;0.10;;;20.70;74.20;;;;;;4199826;28;20052;-69
2022/06/10 08:51:50;;;;;;;0.22;0.08;;;20.70;74.20;;;;;;4200710;28;20090;-70
2022/06/10 08:54:16;;;;;;;0.25;0.25;;;20.70;74.30;;;;;;4216045;28;20101;-70
2022/06/10 08:56:42;;;;;;;0.00;0.00;;;20.70;74.30;;;;;;4214866;28;20106;-70
2022/06/10 08:59:14;;;;;;;0.03;0.03;;;20.70;74.50;;;;;;4215268;28;20063;-70
2022/06/10 09:01:46;;;;;;;0.00;0.00;;;20.70;74.40;;;;;;4200469;28;20447;-69
2022/06/10 09:04:23;;;;;;;0.00;0.00;;;20.70;75.50;;;;;;4215350;28;20075;-70
2022/06/10 09:06:51;;;;;;;0.70;0.70;;;20.70;74.80;;;;;;4215998;28;20488;-70
2022/06/10 09:09:15;;;;;;;4.00;1.25;;;20.70;74.80;;;;;;4197945;28;20196;-70
2022/06/10 09:11:45;;;;;;;0.00;0.00;;;20.70;74.80;;;;;;4226073;28;20055;-70
2022/06/10 09:14:16;;;;;;;0.00;0.00;;;20.70;74.90;;;;;;4197214;28;20588;-70
2022/06/10 09:16:46;;;;;;;0.00;0.00;;;20.70;74.80;;;;;;4211663;28;20109;-70
2022/06/10 09:19:16;;;;;;;0.10;0.10;;;20.70;74.90;;;;;;4198941;28;20113;-70
2022/06/10 09:21:44;;;;;;;0.00;0.00;;;20.70;75.10;;;;;;4197474;28;20420;-70
2022/06/10 09:24:13;;;;;;;0.00;0.00;;;20.70;75.10;;;;;;4198833;28;20048;-67
2022/06/10 09:26:40;;;;;;;0.00;0.00;;;20.70;75.30;;;;;;4213955;28;20066;-71
2022/06/10 09:29:03;;;;;;;0.00;0.00;;;20.70;75.60;;;;;;4214512;28;20093;-69
2022/06/10 09:31:50;;;;;;;0.73;0.73;;;20.70;75.40;;;;;;4213925;28;20048;-70
2022/06/10 09:34:25;;;;;;;0.10;0.10;;;20.80;75.30;;;;;;4198675;28;20060;-70
2022/06/10 09:36:57;;;;;;;0.00;0.00;;;20.80;75.20;;;;;;4206455;28;20048;-69
2022/06/10 09:42:20;;;;;;;26.00;1.98;;;20.90;74.90;;;;;;4215628;28;20067;-69
2022/06/10 09:44:49;;;;;;;3.00;1.13;;;20.90;74.60;;;;;;4215369;28;20058;-70
2022/06/10 09:47:25;;;;;;;0.90;0.90;;;21.00;74.50;;;;;;4215276;28;20585;-70
2022/06/10 09:50:08;;;;;;;0.25;0.25;;;21.00;74.50;;;;;;4211387;28;20052;-70
2022/06/10 09:52:36;;;;;;;1.55;1.45;;;21.00;74.20;;;;;;4214733;28;20044;-69
2022/06/10 09:55:16;;;;;;;0.00;0.00;;;21.00;74.20;;;;;;4214939;28;20060;-70
2022/06/10 09:57:52;;;;;;;2.75;1.10;;;21.00;74.20;;;;;;4215097;28;20059;-69
2022/06/10 10:00:18;;;;;;;0.10;0.10;;;21.00;74.20;;;;;;4213934;28;20542;-70
2022/06/10 10:02:53;;;;;;;0.00;0.00;;;21.00;74.30;;;;;;4215017;28;20055;-69
2022/06/10 10:05:33;;;;;;;1.20;1.20;;;21.00;75.20;;;;;;4214100;28;20487;-68
2022/06/10 10:08:01;;;;;;;0.00;0.00;;;21.00;74.30;;;;;;4200275;28;20789;-70
2022/06/10 10:10:32;;;;;;;0.10;0.10;;;21.00;74.30;;;;;;4215067;28;20059;-70
2022/06/10 10:13:12;;;;;;;0.20;0.20;;;21.00;74.40;;;;;;4214901;28;20387;-70
2022/06/10 10:15:38;;;;;;;0.00;0.00;;;21.00;74.40;;;;;;4213909;28;20640;-70
2022/06/10 10:18:30;;;;;;;0.00;0.00;;;21.00;74.40;;;;;;4214636;28;20557;-68
2022/06/10 10:21:02;;;;;;;;;;;21.00;75.30;;;;;;4215113;28;20135;-69
2022/06/10 10:23:31;;;;;;;0.00;0.00;;;21.10;74.30;;;;;;4214051;28;19943;-70
2022/06/10 10:25:53;;;;;;;0.50;0.50;;;21.10;74.40;;;;;;4213956;28;20059;-70
2022/06/10 10:28:20;;;;;;;2.17;1.45;;;21.10;74.40;;;;;;4196497;28;20498;-69
2022/06/10 10:30:46;;;;;;;4.75;1.75;;;21.10;74.40;;;;;;4197323;28;20058;-70
2022/06/10 10:33:13;;;;;;;0.55;0.55;;;21.10;74.40;;;;;;4197419;28;20063;-69
2022/06/10 10:35:39;;;;;;;0.93;0.85;;;21.10;74.40;;;;;;4197712;28;20056;-69
2022/06/10 10:38:05;;;;;;;2.28;1.17;;;21.10;74.30;;;;;;4196923;28;20548;-69
2022/06/10 10:40:35;;;;;;;2.45;1.08;;;21.20;74.30;;;;;;4197542;28;20058;-69
2022/06/10 10:43:03;;;;;;;1.40;1.38;;;21.20;74.20;;;;;;4197616;28;20048;-69
2022/06/10 10:45:29;;;;;;;3.83;2.38;;;21.20;75.00;;;;;;4208530;28;20076;-68
2022/06/10 10:47:58;;;;;;;0.13;0.13;;;21.30;74.00;;;;;;4212326;28;20113;-69
2022/06/10 10:50:25;;;;;;;0.10;0.10;;;21.30;73.90;;;;;;4213174;28;20056;-69
2022/06/10 10:52:53;;;;;;;0.30;0.30;;;21.30;73.70;;;;;;4213626;28;20059;-69
2022/06/10 10:55:26;;;;;;;0.73;0.73;;;21.30;73.60;;;;;;4213982;28;20048;-69
2022/06/10 10:58:01;;;;;;;2.50;2.40;;;21.30;73.40;;;;;;4214167;28;20078;-70
2022/06/10 11:00:31;;;;;;;0.25;0.25;;;21.30;73.50;;;;;;4212881;28;20488;-69
2022/06/10 11:02:55;;;;;;;0.23;0.23;;;21.40;73.50;;;;;;4214002;28;20105;-69
2022/06/10 11:05:22;;;;;;;1.13;1.13;;;21.40;73.50;;;;;;4213190;28;20058;-69
2022/06/10 11:07:46;;;;;;;0.17;0.17;;;21.40;73.40;;;;;;4213887;28;20056;-69
2022/06/10 11:10:17;;;;;;;7.13;1.73;;;21.40;73.40;;;;;;4198811;28;20052;-69
2022/06/10 11:12:42;;;;;;;0.30;0.30;;;21.40;73.40;;;;;;4196128;28;20087;-70
2022/06/10 11:15:17;;;;;;;0.47;0.47;;;21.40;73.40;;;;;;4196011;28;20650;-70
2022/06/10 11:17:44;;;;;;;1.58;1.48;;;21.40;73.50;;;;;;4195979;28;20076;-70
2022/06/10 11:20:24;;;;;;;2.55;0.40;;;21.40;73.50;;;;;;4197249;28;20063;-70
2022/06/10 11:22:47;;;;;;;0.33;0.33;;;21.40;73.80;;;;;;4196891;28;20123;-71
2022/06/10 11:25:26;;;;;;;1.23;1.15;;;21.50;74.50;;;;;;4196682;28;20048;-68
2022/06/10 11:28:01;;;;;;;1.45;1.45;;;21.50;74.30;;;;;;4196967;28;20063;-70
2022/06/10 11:30:32;;;;;;;1.27;1.27;;;21.50;74.50;;;;;;4192148;28;20685;-69
2022/06/10 11:32:59;;;;;;;0.55;0.55;;;21.50;74.30;;;;;;4212688;28;20055;-69
2022/06/10 11:35:27;;;;;;;1.75;1.38;;;21.50;74.20;;;;;;4213554;28;20117;-69
2022/06/10 11:37:52;;;;;;;1.45;1.45;;;21.50;74.30;;;;;;4213653;28;20051;-69
2022/06/10 11:40:17;;;;;;;1.70;1.65;;;21.50;74.30;;;;;;4202150;28;20070;-69
2022/06/10 11:42:45;;;;;;;1.80;1.80;;;21.50;74.30;;;;;;4196769;28;20063;-69
2022/06/10 11:45:17;;;;;;;0.60;0.60;;;21.50;74.30;;;;;;4196344;28;20094;-70
2022/06/10 11:47:44;;;;;;;2.83;1.85;;;21.50;74.40;;;;;;4197104;28;20048;-69
2022/06/10 11:50:13;;;;;;;7.88;2.40;;;21.50;74.50;;;;;;4212377;28;20071;-69
2022/06/10 11:52:38;;;;;;;3.83;2.95;;;21.50;74.50;;;;;;4212208;28;20102;-68
2022/06/10 11:55:06;;;;;;;2.53;2.40;;;21.50;74.50;;;;;;4211621;28;20063;-68
2022/06/10 12:00:31;;;;;;;0.40;0.40;;;21.50;74.70;;;;;;4195422;28;20130;-69
2022/06/10 12:03:03;;;;;;;0.17;0.17;;;21.40;74.70;;;;;;4196800;28;20048;-69
2022/06/10 12:05:36;;;;;;;3.15;2.95;;;21.40;74.70;;;;;;4196643;28;20547;-69
2022/06/10 12:08:05;;;;;;;0.22;0.22;;;21.40;74.80;;;;;;4195695;28;20753;-69
2022/06/10 12:10:31;;;;;;;0.75;0.75;;;21.40;74.80;;;;;;4205557;28;20075;-68
2022/06/10 12:12:56;;;;;;;1.58;1.42;;;21.40;74.70;;;;;;4213339;28;20062;-68
2022/06/10 12:15:26;;;;;;;0.35;0.35;;;21.40;74.70;;;;;;4213383;28;20078;-69
2022/06/10 12:17:51;;;;;;;0.22;0.22;;;21.50;74.90;;;;;;4208013;28;20041;-70
2022/06/10 12:20:19;;;;;;;0.75;0.75;;;21.40;74.70;;;;;;4196478;28;20129;-69
2022/06/10 12:22:41;;;;;;;0.05;0.05;;;21.50;74.70;;;;;;4196414;28;20056;-68
2022/06/10 12:25:14;;;;;;;2.17;0.88;;;21.50;74.50;;;;;;4196360;28;20144;-68
2022/06/10 12:27:40;;;;;;;0.03;0.03;;;21.60;74.50;;;;;;4180800;28;20049;-68
2022/06/10 12:30:05;;;;;;;0.20;0.20;;;21.60;74.30;;;;;;4212987;28;20107;-68
2022/06/10 12:32:34;;;;;;;0.38;0.38;;;21.60;74.20;;;;;;4211972;28;20066;-68
2022/06/10 12:35:00;;;;;;;0.68;0.68;;;21.60;74.10;;;;;;4213087;28;20052;-68
2022/06/10 12:37:28;;;;;;;0.10;0.10;;;21.70;74.00;;;;;;4211850;28;20098;-68
2022/06/10 12:39:55;;;;;;;0.55;0.55;;;21.70;73.90;;;;;;4202355;28;20051;-68
2022/06/10 12:42:23;;;;;;;0.88;0.88;;;21.70;74.00;;;;;;4212715;28;20067;-67
2022/06/10 12:44:51;;;;;;;0.13;0.13;;;21.70;73.90;;;;;;4211635;28;20532;-68
2022/06/10 12:47:17;;;;;;;0.20;0.20;;;21.70;73.80;;;;;;4212987;28;20124;-68
2022/06/10 12:49:43;;;;;;;0.30;0.30;;;21.70;73.80;;;;;;4216004;28;20106;-68
2022/06/10 12:52:20;;;;;;;0.10;0.10;;;21.70;73.70;;;;;;4215860;28;20055;-68
2022/06/10 12:54:53;;;;;;;0.00;0.00;;;21.70;73.60;;;;;;4209278;28;20499;-68
2022/06/10 12:57:35;;;;;;;0.50;0.50;;;21.70;73.70;;;;;;4198687;28;20070;-68
2022/06/10 13:00:38;;;;;;;0.57;0.57;;;21.70;73.70;;;;;;4197728;28;20114;-68
2022/06/10 13:03:25;;;;;;;0.47;0.47;;;21.70;73.70;;;;;;4147326;28;20092;-68
2022/06/10 13:05:50;;;;;;;0.70;0.70;;;21.70;73.70;;;;;;4148503;28;20538;-68